createdAt,value
2023-02-19T00:01:45.133Z,7.05
2023-02-19T00:04:15.933Z,7.40
2023-02-19T00:06:44.693Z,6.07
2023-02-19T00:09:13.693Z,6.85
2023-02-19T00:11:42.297Z,6.40
2023-02-19T00:14:12.058Z,8.02
2023-02-19T00:16:40.566Z,6.57
2023-02-19T00:19:10.392Z,6.70
2023-02-19T00:21:39.317Z,6.65
2023-02-19T00:24:09.102Z,7.90
2023-02-19T00:26:36.879Z,6.22
2023-02-19T00:29:04.641Z,7.00
2023-02-19T00:31:34.238Z,7.38
2023-02-19T00:34:03.230Z,6.82
2023-02-19T00:36:32.030Z,7.35
2023-02-19T00:39:00.930Z,9.85
2023-02-19T00:41:29.177Z,7.33
2023-02-19T00:43:59.085Z,7.35
2023-02-19T00:46:28.854Z,6.90
2023-02-19T00:48:57.352Z,7.82
2023-02-19T00:51:27.132Z,7.55
2023-02-19T00:53:55.048Z,7.83
2023-02-19T00:56:24.038Z,7.95
2023-02-19T00:58:51.840Z,6.65
2023-02-19T01:01:20.129Z,6.45
2023-02-19T01:03:48.619Z,6.55
2023-02-19T01:06:17.846Z,5.93
2023-02-19T01:08:46.038Z,7.82
2023-02-19T01:11:14.311Z,6.38
2023-02-19T01:13:43.884Z,5.30
2023-02-19T01:16:15.109Z,6.78
2023-02-19T01:18:43.512Z,6.17
2023-02-19T01:21:14.396Z,7.50
2023-02-19T01:23:42.395Z,6.30
2023-02-19T01:26:13.746Z,5.43
2023-02-19T01:28:42.926Z,5.82
2023-02-19T01:31:15.384Z,5.43
2023-02-19T01:33:46.036Z,5.97
2023-02-19T01:36:14.385Z,6.18
2023-02-19T01:38:42.606Z,5.40
2023-02-19T01:41:13.624Z,5.07
2023-02-19T01:46:35.725Z,5.15
2023-02-19T01:49:07.680Z,4.47
2023-02-19T01:51:37.590Z,4.45
2023-02-19T01:54:08.692Z,4.68
2023-02-19T01:56:38.703Z,4.25
2023-02-19T01:59:08.397Z,4.55
2023-02-19T02:01:40.052Z,4.30
2023-02-19T02:04:10.942Z,4.93
2023-02-19T02:06:44.100Z,4.10
2023-02-19T02:09:29.601Z,4.20
2023-02-19T02:11:57.368Z,3.67
2023-02-19T02:14:30.405Z,3.27
2023-02-19T02:17:10.358Z,3.45
2023-02-19T02:20:08.465Z,6.15
2023-02-19T02:22:39.265Z,3.35
2023-02-19T02:25:25.999Z,4.30
2023-02-19T02:28:01.973Z,3.47
2023-02-19T02:30:45.690Z,3.90
2023-02-19T02:33:20.814Z,3.10
2023-02-19T02:35:52.075Z,3.78
2023-02-19T02:38:22.973Z,3.72
2023-02-19T02:40:50.921Z,4.93
2023-02-19T02:43:18.685Z,4.07
2023-02-19T02:45:47.656Z,5.55
2023-02-19T02:48:23.302Z,4.78
2023-02-19T02:50:56.076Z,4.15
2023-02-19T02:53:47.629Z,5.03
2023-02-19T02:56:17.452Z,4.38
2023-02-19T02:58:46.191Z,4.07
2023-02-19T03:01:37.638Z,4.80
2023-02-19T03:04:09.506Z,3.83
2023-02-19T03:06:38.884Z,3.47
2023-02-19T03:09:12.798Z,4.47
2023-02-19T03:12:02.465Z,4.78
2023-02-19T03:14:54.459Z,4.75
2023-02-19T03:17:46.951Z,3.85
2023-02-19T03:20:17.336Z,4.37
2023-02-19T03:22:46.559Z,3.95
2023-02-19T03:25:36.214Z,3.95
2023-02-19T03:28:07.643Z,3.92
2023-02-19T03:30:38.849Z,5.15
2023-02-19T03:33:11.672Z,4.70
2023-02-19T03:35:42.820Z,4.10
2023-02-19T03:38:18.618Z,4.30
2023-02-19T03:40:55.812Z,4.18
2023-02-19T03:43:28.315Z,3.28
2023-02-19T03:46:04.379Z,4.70
2023-02-19T03:48:35.802Z,4.63
2023-02-19T03:51:13.938Z,4.93
2023-02-19T03:53:50.928Z,5.07
2023-02-19T03:56:25.588Z,5.75
2023-02-19T03:58:59.648Z,5.47
2023-02-19T04:01:31.806Z,6.15
2023-02-19T04:04:09.133Z,4.78
2023-02-19T04:06:39.687Z,5.38
2023-02-19T04:09:09.931Z,5.20
2023-02-19T04:11:39.521Z,5.73
2023-02-19T04:14:12.357Z,4.63
2023-02-19T04:16:43.231Z,6.72
2023-02-19T04:19:14.954Z,5.07
2023-02-19T04:21:43.689Z,5.95
2023-02-19T04:24:15.587Z,4.50
2023-02-19T04:26:45.001Z,4.82
2023-02-19T04:29:12.909Z,5.25
2023-02-19T04:31:40.506Z,5.57
2023-02-19T04:34:08.075Z,4.85
2023-02-19T04:36:38.862Z,5.33
2023-02-19T04:39:08.104Z,5.45
2023-02-19T04:41:36.032Z,5.05
2023-02-19T04:44:03.644Z,5.40
2023-02-19T04:46:31.346Z,5.60
2023-02-19T04:48:58.929Z,5.00
2023-02-19T04:51:26.737Z,5.43
2023-02-19T04:53:56.650Z,5.07
2023-02-19T04:56:24.315Z,4.55
2023-02-19T04:58:52.056Z,4.95
2023-02-19T05:01:19.717Z,5.57
2023-02-19T05:03:47.884Z,4.82
2023-02-19T05:06:15.939Z,4.38
2023-02-19T05:08:43.707Z,3.78
2023-02-19T05:11:13.656Z,4.45
2023-02-19T05:13:41.821Z,3.97
2023-02-19T05:16:13.734Z,4.28
2023-02-19T05:18:41.746Z,4.30
2023-02-19T05:21:10.562Z,4.57
2023-02-19T05:23:38.628Z,3.70
2023-02-19T05:26:07.163Z,4.30
2023-02-19T05:28:36.410Z,4.10
2023-02-19T05:31:06.868Z,3.95
2023-02-19T05:33:34.862Z,3.70
2023-02-19T05:36:06.942Z,3.85
2023-02-19T05:38:34.697Z,3.87
2023-02-19T05:41:10.361Z,3.45
2023-02-19T05:43:40.158Z,3.15
2023-02-19T05:46:08.791Z,3.47
2023-02-19T05:48:36.983Z,3.25
2023-02-19T05:51:05.485Z,3.60
2023-02-19T05:53:33.643Z,3.72
2023-02-19T05:56:01.369Z,3.20
2023-02-19T05:58:29.855Z,2.90
2023-02-19T06:00:58.921Z,4.22
2023-02-19T06:03:26.700Z,3.33
2023-02-19T06:05:54.452Z,3.90
2023-02-19T06:08:22.021Z,2.80
2023-02-19T06:10:49.591Z,4.53
2023-02-19T06:13:17.887Z,2.80
2023-02-19T06:15:45.574Z,2.80
2023-02-19T06:18:14.496Z,3.78
2023-02-19T06:20:42.233Z,3.20
2023-02-19T06:23:09.793Z,4.05
2023-02-19T06:25:37.391Z,3.35
2023-02-19T06:28:05.526Z,3.80
2023-02-19T06:30:33.200Z,3.28
2023-02-19T06:33:00.879Z,3.63
2023-02-19T06:35:30.401Z,3.38
2023-02-19T06:37:57.972Z,3.08
2023-02-19T06:40:25.519Z,2.87
2023-02-19T06:42:53.243Z,4.22
2023-02-19T06:45:21.070Z,3.38
2023-02-19T06:47:48.928Z,3.30
2023-02-19T06:50:16.844Z,3.90
2023-02-19T06:52:45.729Z,3.07
2023-02-19T06:55:13.307Z,7.10
2023-02-19T06:57:41.163Z,5.90
2023-02-19T07:00:10.825Z,3.05
2023-02-19T07:02:38.415Z,7.80
2023-02-19T07:05:06.934Z,3.50
2023-02-19T07:07:34.665Z,2.67
2023-02-19T07:10:03.847Z,3.13
2023-02-19T07:12:31.577Z,2.42
2023-02-19T07:14:59.227Z,3.00
2023-02-19T07:17:26.794Z,3.27
2023-02-19T07:19:54.509Z,4.55
2023-02-19T07:22:22.370Z,17.15
2023-02-19T07:24:49.911Z,3.30
2023-02-19T07:27:19.048Z,2.70
2023-02-19T07:29:47.284Z,2.43
2023-02-19T07:32:14.863Z,2.55
2023-02-19T07:34:42.632Z,2.55
2023-02-19T07:37:10.192Z,3.42
2023-02-19T07:39:37.733Z,5.88
2023-02-19T07:42:05.723Z,4.80
2023-02-19T07:44:34.651Z,6.40
2023-02-19T07:47:02.847Z,7.78
2023-02-19T07:49:30.460Z,6.20
2023-02-19T07:51:58.028Z,7.10
2023-02-19T07:54:25.810Z,3.90
2023-02-19T07:56:53.373Z,7.97
2023-02-19T07:59:21.611Z,5.93
2023-02-19T08:02:08.532Z,6.95
2023-02-19T08:04:36.276Z,3.63
2023-02-19T08:07:05.355Z,6.87
2023-02-19T08:09:33.271Z,6.15
2023-02-19T08:12:18.257Z,5.55
2023-02-19T08:14:45.982Z,5.22
2023-02-19T08:17:15.146Z,6.72
2023-02-19T08:19:43.048Z,12.37
2023-02-19T08:22:10.962Z,5.90
2023-02-19T08:24:42.828Z,3.17
2023-02-19T08:27:10.432Z,2.95
2023-02-19T08:29:38.134Z,2.00
2023-02-19T08:32:06.349Z,1.90
2023-02-19T08:34:35.405Z,2.33
2023-02-19T08:37:03.150Z,2.00
2023-02-19T08:39:30.869Z,2.03
2023-02-19T08:41:58.449Z,2.20
2023-02-19T08:44:26.025Z,2.37
2023-02-19T08:46:53.762Z,2.10
2023-02-19T08:49:21.309Z,2.80
2023-02-19T08:51:50.206Z,2.25
2023-02-19T08:54:17.939Z,2.00
2023-02-19T08:56:45.759Z,2.20
2023-02-19T08:59:13.332Z,2.35
2023-02-19T09:01:41.507Z,2.47
2023-02-19T09:04:12.723Z,3.90
2023-02-19T09:06:40.366Z,6.43
2023-02-19T09:09:09.800Z,8.17
2023-02-19T09:11:40.076Z,5.63
2023-02-19T09:14:08.361Z,6.25
2023-02-19T09:16:36.336Z,3.15
2023-02-19T09:19:04.363Z,4.03
2023-02-19T09:21:31.985Z,3.83
2023-02-19T09:23:59.534Z,3.10
2023-02-19T09:26:28.630Z,6.68
2023-02-19T09:28:56.444Z,6.28
2023-02-19T09:31:24.128Z,5.50
2023-02-19T09:33:51.911Z,6.43
2023-02-19T09:36:19.794Z,5.60
2023-02-19T09:38:47.433Z,6.47
2023-02-19T09:41:26.759Z,5.90
2023-02-19T09:43:58.688Z,6.53
2023-02-19T09:46:31.881Z,3.60
2023-02-19T09:49:08.006Z,6.25
2023-02-19T09:51:38.978Z,4.20
2023-02-19T09:54:08.961Z,5.82
2023-02-19T09:56:36.642Z,2.33
2023-02-19T09:59:06.509Z,3.70
2023-02-19T10:01:38.473Z,4.82
2023-02-19T10:04:06.142Z,3.67
2023-02-19T10:06:38.376Z,2.90
2023-02-19T10:09:20.053Z,6.05
2023-02-19T10:11:49.707Z,3.67
2023-02-19T10:14:25.580Z,3.03
2023-02-19T10:16:53.895Z,4.13
2023-02-19T10:19:24.627Z,5.30
2023-02-19T10:21:55.406Z,3.58
2023-02-19T10:24:28.168Z,3.07
2023-02-19T10:26:58.882Z,5.05
2023-02-19T10:29:27.906Z,5.82
2023-02-19T10:32:14.689Z,3.17
2023-02-19T10:34:42.293Z,2.58
2023-02-19T10:37:14.651Z,3.43
2023-02-19T10:39:44.536Z,3.88
2023-02-19T10:42:17.126Z,3.85
2023-02-19T10:44:48.569Z,2.42
2023-02-19T10:47:20.362Z,3.53
2023-02-19T10:49:49.653Z,4.53
2023-02-19T10:52:22.660Z,4.63
2023-02-19T10:54:53.302Z,6.15
2023-02-19T10:57:33.159Z,5.95
2023-02-19T11:00:04.156Z,6.35
2023-02-19T11:02:33.068Z,3.80
2023-02-19T11:05:18.102Z,3.90
2023-02-19T11:07:48.295Z,6.82
2023-02-19T11:10:28.590Z,5.78
2023-02-19T11:13:01.321Z,6.40
2023-02-19T11:15:33.004Z,4.97
2023-02-19T11:18:05.552Z,3.95
2023-02-19T11:20:33.566Z,5.40
2023-02-19T11:23:05.697Z,4.72
2023-02-19T11:25:34.713Z,4.55
2023-02-19T11:28:08.272Z,3.73
2023-02-19T11:30:41.077Z,8.60
2023-02-19T11:33:23.548Z,4.03
2023-02-19T11:35:53.357Z,5.05
2023-02-19T11:38:21.613Z,2.75
2023-02-19T11:40:56.862Z,3.03
2023-02-19T11:43:57.659Z,5.70
2023-02-19T11:46:38.822Z,3.20
2023-02-19T11:49:18.797Z,1.88
2023-02-19T11:52:08.192Z,1.88
2023-02-19T11:54:52.818Z,4.10
2023-02-19T11:57:33.765Z,3.13
2023-02-19T12:00:17.884Z,2.22
2023-02-19T12:03:03.530Z,5.15
2023-02-19T12:05:48.740Z,3.90
2023-02-19T12:08:36.823Z,11.97
2023-02-19T12:11:19.107Z,6.80
2023-02-19T12:14:02.420Z,4.28
2023-02-19T12:16:36.744Z,5.40
2023-02-19T12:19:24.808Z,5.40
2023-02-19T12:22:04.146Z,4.47
2023-02-19T12:24:47.766Z,3.00
2023-02-19T12:27:25.178Z,3.50
2023-02-19T12:30:08.476Z,3.22
2023-02-19T12:32:56.014Z,4.97
2023-02-19T12:35:36.968Z,5.97
2023-02-19T12:38:18.644Z,4.60
2023-02-19T12:40:59.105Z,4.32
2023-02-19T12:43:26.663Z,2.70
2023-02-19T12:45:57.984Z,4.53
2023-02-19T12:48:31.668Z,2.67
2023-02-19T12:51:06.515Z,3.47
2023-02-19T12:53:41.275Z,3.88
2023-02-19T12:56:15.318Z,3.83
2023-02-19T12:58:46.832Z,4.88
2023-02-19T13:01:21.678Z,4.30
2023-02-19T13:03:54.862Z,5.32
2023-02-19T13:06:39.168Z,6.00
2023-02-19T13:09:12.875Z,4.72
2023-02-19T13:11:45.236Z,3.83
2023-02-19T13:14:21.802Z,3.97
2023-02-19T13:16:54.678Z,6.47
2023-02-19T13:19:22.446Z,4.60
2023-02-19T13:22:36.055Z,4.22
2023-02-19T13:25:04.870Z,4.15
2023-02-19T13:28:03.786Z,7.17
2023-02-19T13:31:02.960Z,4.75
2023-02-19T13:33:40.674Z,4.53
2023-02-19T13:36:17.318Z,6.20
2023-02-19T13:38:49.172Z,14.40
2023-02-19T13:41:27.305Z,7.10
2023-02-19T13:43:58.418Z,7.45
2023-02-19T13:46:26.813Z,5.10
2023-02-19T13:49:26.585Z,4.53
2023-02-19T13:51:54.629Z,5.47
2023-02-19T13:54:27.063Z,3.03
2023-02-19T13:57:31.284Z,3.78
2023-02-19T14:00:00.267Z,2.85
2023-02-19T14:02:31.897Z,3.72
2023-02-19T14:05:01.912Z,3.67
2023-02-19T14:08:02.598Z,3.60
2023-02-19T14:10:55.095Z,3.42
2023-02-19T14:14:16.073Z,6.15
2023-02-19T14:17:08.491Z,5.80
2023-02-19T14:20:03.714Z,6.00
2023-02-19T14:23:10.882Z,4.77
2023-02-19T14:25:46.961Z,5.00
2023-02-19T14:28:30.275Z,5.80
2023-02-19T14:31:03.872Z,3.83
2023-02-19T14:33:34.052Z,6.28
2023-02-19T14:36:21.576Z,5.53
2023-02-19T14:38:54.016Z,4.88
2023-02-19T14:41:26.817Z,3.97
2023-02-19T14:44:03.526Z,5.80
2023-02-19T14:46:33.773Z,7.30
2023-02-19T14:49:06.997Z,5.43
2023-02-19T14:51:41.370Z,6.63
2023-02-19T14:54:17.371Z,4.28
2023-02-19T14:56:51.353Z,5.38
2023-02-19T14:59:30.869Z,4.90
2023-02-19T15:02:00.969Z,3.93
2023-02-19T15:04:31.476Z,2.90
2023-02-19T15:07:03.556Z,3.22
2023-02-19T15:09:34.203Z,4.22
2023-02-19T15:12:04.030Z,6.70
2023-02-19T15:14:34.410Z,3.80
2023-02-19T15:17:05.319Z,4.78
2023-02-19T15:19:35.550Z,5.13
2023-02-19T15:22:03.842Z,2.65
2023-02-19T15:24:31.835Z,3.63
2023-02-19T15:26:59.509Z,3.83
2023-02-19T15:29:28.708Z,4.53
2023-02-19T15:31:59.452Z,5.53
2023-02-19T15:34:29.718Z,5.40
2023-02-19T15:37:01.066Z,3.47
2023-02-19T15:39:35.181Z,4.03
2023-02-19T15:42:05.130Z,4.03
2023-02-19T15:44:40.634Z,3.47
2023-02-19T15:47:21.337Z,3.85
2023-02-19T15:49:55.670Z,4.55
2023-02-19T15:52:31.587Z,5.37
2023-02-19T15:55:04.111Z,3.20
2023-02-19T15:57:36.276Z,5.55
2023-02-19T16:00:13.957Z,6.88
2023-02-19T16:02:43.446Z,5.25
2023-02-19T16:05:16.125Z,10.47
2023-02-19T16:07:44.018Z,6.70
2023-02-19T16:10:22.739Z,6.43
2023-02-19T16:12:58.327Z,4.97
2023-02-19T16:15:27.072Z,5.53
2023-02-19T16:17:56.461Z,7.47
2023-02-19T16:20:27.247Z,7.18
2023-02-19T16:23:02.517Z,8.55
2023-02-19T16:25:35.012Z,6.05
2023-02-19T16:28:11.829Z,3.63
2023-02-19T16:30:40.057Z,4.90
2023-02-19T16:33:36.125Z,10.00
2023-02-19T16:36:26.558Z,4.40
2023-02-19T16:39:16.181Z,6.22
2023-02-19T16:42:17.501Z,6.47
2023-02-19T16:44:46.379Z,6.70
2023-02-19T16:47:35.434Z,5.25
2023-02-19T16:50:12.837Z,5.93
2023-02-19T16:52:52.123Z,6.47
2023-02-19T16:55:19.861Z,6.95
2023-02-19T16:57:47.897Z,7.33
2023-02-19T17:00:19.786Z,5.70
2023-02-19T17:02:48.416Z,9.70
2023-02-19T17:05:18.254Z,11.18
2023-02-19T17:07:45.898Z,19.48
2023-02-19T17:10:16.975Z,13.33
2023-02-19T17:12:46.302Z,17.83
2023-02-19T17:15:14.111Z,13.63
2023-02-19T17:17:42.775Z,12.35
2023-02-19T17:20:23.034Z,7.97
2023-02-19T17:22:51.027Z,7.67
2023-02-19T17:25:18.706Z,14.10
2023-02-19T17:27:46.347Z,11.75
2023-02-19T17:30:18.878Z,13.65
2023-02-19T17:32:46.668Z,12.60
2023-02-19T17:35:14.433Z,11.13
2023-02-19T17:37:43.494Z,10.27
2023-02-19T17:40:32.185Z,7.72
2023-02-19T17:43:00.785Z,11.55
2023-02-19T17:45:28.967Z,6.60
2023-02-19T17:47:56.766Z,6.87
2023-02-19T17:50:26.445Z,5.38
2023-02-19T17:52:55.702Z,7.78
2023-02-19T17:55:23.584Z,4.97
2023-02-19T17:57:52.702Z,5.72
2023-02-19T18:00:22.537Z,5.73
2023-02-19T18:02:50.348Z,6.10
2023-02-19T18:05:18.292Z,6.75
2023-02-19T18:07:46.775Z,5.80
2023-02-19T18:10:18.029Z,8.27
2023-02-19T18:12:46.032Z,10.50
2023-02-19T18:15:18.257Z,11.85
2023-02-19T18:17:46.029Z,9.90
2023-02-19T18:20:15.120Z,9.07
2023-02-19T18:22:43.086Z,8.63
2023-02-19T18:25:11.602Z,6.40
2023-02-19T18:27:40.886Z,8.13
2023-02-19T18:30:09.756Z,6.15
2023-02-19T18:32:37.786Z,6.85
2023-02-19T18:35:05.966Z,6.25
2023-02-19T18:37:34.000Z,7.10
2023-02-19T18:40:06.864Z,5.20
2023-02-19T18:42:37.221Z,7.97
2023-02-19T18:45:07.053Z,6.80
2023-02-19T18:47:37.094Z,5.32
2023-02-19T18:50:08.325Z,6.17
2023-02-19T18:52:37.856Z,7.05
2023-02-19T18:55:06.211Z,4.55
2023-02-19T18:57:33.787Z,6.60
2023-02-19T19:00:02.004Z,4.93
2023-02-19T19:02:42.639Z,5.57
2023-02-19T19:05:18.101Z,5.07
2023-02-19T19:07:45.687Z,5.20
2023-02-19T19:10:13.428Z,7.25
2023-02-19T19:12:41.396Z,5.93
2023-02-19T19:15:10.376Z,6.07
2023-02-19T19:17:40.382Z,4.85
2023-02-19T19:20:10.058Z,6.50
2023-02-19T19:22:38.030Z,6.90
2023-02-19T19:25:06.910Z,6.72
2023-02-19T19:27:34.669Z,9.73
2023-02-19T19:30:02.627Z,9.32
2023-02-19T19:32:31.215Z,6.45
2023-02-19T19:35:00.208Z,8.07
2023-02-19T19:37:29.181Z,6.28
2023-02-19T19:39:57.285Z,9.47
2023-02-19T19:42:25.577Z,12.60
2023-02-19T19:44:54.112Z,9.18
2023-02-19T19:47:22.418Z,12.75
2023-02-19T19:49:50.137Z,7.95
2023-02-19T19:52:19.279Z,6.00
2023-02-19T19:54:46.863Z,5.65
2023-02-19T19:57:15.092Z,7.18
2023-02-19T19:59:42.684Z,6.35
2023-02-19T20:02:12.141Z,10.43
2023-02-19T20:04:40.536Z,9.17
2023-02-19T20:07:08.091Z,7.93
2023-02-19T20:09:38.195Z,8.07
2023-02-19T20:12:06.668Z,5.43
2023-02-19T20:14:34.962Z,6.65
2023-02-19T20:17:02.589Z,6.53
2023-02-19T20:19:30.354Z,5.50
2023-02-19T20:21:58.370Z,7.15
2023-02-19T20:24:28.774Z,6.72
2023-02-19T20:26:59.965Z,4.35
2023-02-19T20:29:29.081Z,5.90
2023-02-19T20:32:00.112Z,5.88
2023-02-19T20:34:29.614Z,3.55
2023-02-19T20:36:57.641Z,3.97
2023-02-19T20:39:29.019Z,6.88
2023-02-19T20:41:59.327Z,4.60
2023-02-19T20:44:27.763Z,5.55
2023-02-19T20:46:56.612Z,4.70
2023-02-19T20:49:26.346Z,5.93
2023-02-19T20:51:55.937Z,3.85
2023-02-19T20:54:26.417Z,4.93
2023-02-19T20:56:55.954Z,4.80
2023-02-19T20:59:27.319Z,5.25
2023-02-19T21:01:54.957Z,5.70
2023-02-19T21:04:22.800Z,5.55
2023-02-19T21:06:52.188Z,4.67
2023-02-19T21:09:20.072Z,4.70
2023-02-19T21:11:48.265Z,6.60
2023-02-19T21:14:16.541Z,3.53
2023-02-19T21:16:47.804Z,4.75
2023-02-19T21:19:15.514Z,4.30
2023-02-19T21:21:43.224Z,4.70
2023-02-19T21:24:14.079Z,5.68
2023-02-19T21:26:43.222Z,4.85
2023-02-19T21:29:14.740Z,5.05
2023-02-19T21:31:45.821Z,3.80
2023-02-19T21:34:14.940Z,3.95
2023-02-19T21:36:43.061Z,3.90
2023-02-19T21:39:12.787Z,4.93
2023-02-19T21:41:40.395Z,5.03
2023-02-19T21:44:08.482Z,3.93
2023-02-19T21:46:37.029Z,3.15
2023-02-19T21:49:06.185Z,3.42
2023-02-19T21:51:35.872Z,4.05
2023-02-19T21:54:04.340Z,4.57
2023-02-19T21:56:36.108Z,5.10
2023-02-19T21:59:04.044Z,3.78
2023-02-19T22:01:33.650Z,4.20
2023-02-19T22:04:01.815Z,3.67
2023-02-19T22:06:32.057Z,7.10
2023-02-19T22:09:00.240Z,4.67
2023-02-19T22:11:28.138Z,5.20
2023-02-19T22:13:55.771Z,3.38
2023-02-19T22:16:23.706Z,5.43
2023-02-19T22:18:53.262Z,3.83
2023-02-19T22:21:22.064Z,3.27
2023-02-19T22:23:52.550Z,4.05
2023-02-19T22:26:20.912Z,5.88
2023-02-19T22:28:48.678Z,3.42
2023-02-19T22:31:17.000Z,5.80
2023-02-19T22:33:44.807Z,3.73
2023-02-19T22:36:17.169Z,2.92
2023-02-19T22:38:45.099Z,7.05
2023-02-19T22:41:15.043Z,3.47
2023-02-19T22:43:42.860Z,2.40
2023-02-19T22:46:14.817Z,5.40
2023-02-19T22:48:42.928Z,4.93
2023-02-19T22:51:13.537Z,2.85
2023-02-19T22:53:45.040Z,3.28
2023-02-19T22:56:15.368Z,4.28
2023-02-19T22:58:43.476Z,3.40
2023-02-19T23:01:11.576Z,4.18
2023-02-19T23:03:46.405Z,2.92
2023-02-19T23:06:14.836Z,5.05
2023-02-19T23:08:43.345Z,4.40
2023-02-19T23:11:21.433Z,4.83
2023-02-19T23:13:49.126Z,5.15
2023-02-19T23:16:16.883Z,4.80
2023-02-19T23:18:44.773Z,4.32
2023-02-19T23:21:12.562Z,6.80
2023-02-19T23:23:42.485Z,4.93
2023-02-19T23:26:10.827Z,6.07
2023-02-19T23:28:41.948Z,4.95
2023-02-19T23:31:10.430Z,4.43
2023-02-19T23:33:38.119Z,6.78
2023-02-19T23:36:06.699Z,3.67
2023-02-19T23:38:34.539Z,4.00
2023-02-19T23:41:02.279Z,3.92
2023-02-19T23:43:30.051Z,2.70
2023-02-19T23:45:59.078Z,2.80
2023-02-19T23:48:26.685Z,4.80
2023-02-19T23:50:55.005Z,4.50
2023-02-19T23:53:22.659Z,4.03
2023-02-19T23:55:51.595Z,4.28
2023-02-19T23:58:19.410Z,3.50
